sensor_id;sensor_type;location;lat;lon;timestamp;P1;durP1;ratioP1;P2;durP2;ratioP2
4674;SDS011;2351;50.812;12.872;2024-03-02T00:00:26;63.50;;;30.43;;
4674;SDS011;2351;50.812;12.872;2024-03-02T00:02:57;72.37;;;32.77;;
4674;SDS011;2351;50.812;12.872;2024-03-02T00:05:29;64.10;;;31.90;;
4674;SDS011;2351;50.812;12.872;2024-03-02T00:08:03;73.17;;;32.67;;
4674;SDS011;2351;50.812;12.872;2024-03-02T00:10:37;72.93;;;33.17;;
4674;SDS011;2351;50.812;12.872;2024-03-02T00:13:10;76.60;;;32.47;;
4674;SDS011;2351;50.812;12.872;2024-03-02T00:15:45;66.73;;;32.60;;
4674;SDS011;2351;50.812;12.872;2024-03-02T00:18:19;72.33;;;32.63;;
4674;SDS011;2351;50.812;12.872;2024-03-02T00:20:52;65.63;;;33.27;;
4674;SDS011;2351;50.812;12.872;2024-03-02T00:23:29;65.13;;;30.13;;
4674;SDS011;2351;50.812;12.872;2024-03-02T00:26:02;65.13;;;30.07;;
4674;SDS011;2351;50.812;12.872;2024-03-02T00:28:35;59.97;;;29.80;;
4674;SDS011;2351;50.812;12.872;2024-03-02T00:31:09;55.00;;;28.20;;
4674;SDS011;2351;50.812;12.872;2024-03-02T00:33:43;74.67;;;30.80;;
4674;SDS011;2351;50.812;12.872;2024-03-02T00:36:16;55.63;;;30.93;;
4674;SDS011;2351;50.812;12.872;2024-03-02T00:38:54;62.30;;;30.40;;
4674;SDS011;2351;50.812;12.872;2024-03-02T00:41:27;66.40;;;29.07;;
4674;SDS011;2351;50.812;12.872;2024-03-02T00:44:01;68.70;;;32.20;;
4674;SDS011;2351;50.812;12.872;2024-03-02T00:46:34;66.80;;;29.27;;
4674;SDS011;2351;50.812;12.872;2024-03-02T00:49:11;67.23;;;28.40;;
4674;SDS011;2351;50.812;12.872;2024-03-02T00:51:46;54.90;;;26.63;;
4674;SDS011;2351;50.812;12.872;2024-03-02T00:54:21;60.60;;;28.77;;
4674;SDS011;2351;50.812;12.872;2024-03-02T00:56:54;54.80;;;26.93;;
4674;SDS011;2351;50.812;12.872;2024-03-02T00:59:26;59.10;;;27.60;;
4674;SDS011;2351;50.812;12.872;2024-03-02T01:01:57;52.67;;;27.70;;
4674;SDS011;2351;50.812;12.872;2024-03-02T01:04:29;60.13;;;27.10;;
4674;SDS011;2351;50.812;12.872;2024-03-02T01:07:01;47.20;;;25.07;;
4674;SDS011;2351;50.812;12.872;2024-03-02T01:09:34;51.07;;;23.83;;
4674;SDS011;2351;50.812;12.872;2024-03-02T01:12:06;60.33;;;27.30;;
4674;SDS011;2351;50.812;12.872;2024-03-02T01:14:38;66.00;;;28.90;;
4674;SDS011;2351;50.812;12.872;2024-03-02T01:17:10;50.93;;;26.83;;
4674;SDS011;2351;50.812;12.872;2024-03-02T01:19:41;62.90;;;29.67;;
4674;SDS011;2351;50.812;12.872;2024-03-02T01:22:13;62.57;;;27.67;;
4674;SDS011;2351;50.812;12.872;2024-03-02T01:24:46;58.20;;;28.63;;
4674;SDS011;2351;50.812;12.872;2024-03-02T01:27:19;61.90;;;28.77;;
4674;SDS011;2351;50.812;12.872;2024-03-02T01:29:51;58.20;;;29.20;;
4674;SDS011;2351;50.812;12.872;2024-03-02T01:32:23;61.53;;;28.47;;
4674;SDS011;2351;50.812;12.872;2024-03-02T01:34:54;62.30;;;30.63;;
4674;SDS011;2351;50.812;12.872;2024-03-02T01:37:26;70.77;;;28.50;;
4674;SDS011;2351;50.812;12.872;2024-03-02T01:39:59;59.17;;;29.07;;
4674;SDS011;2351;50.812;12.872;2024-03-02T01:42:31;57.10;;;28.67;;
4674;SDS011;2351;50.812;12.872;2024-03-02T01:45:03;55.87;;;27.40;;
4674;SDS011;2351;50.812;12.872;2024-03-02T01:47:35;54.93;;;26.67;;
4674;SDS011;2351;50.812;12.872;2024-03-02T01:50:07;54.47;;;27.50;;
4674;SDS011;2351;50.812;12.872;2024-03-02T01:52:41;59.20;;;29.57;;
4674;SDS011;2351;50.812;12.872;2024-03-02T01:55:15;52.67;;;29.13;;
4674;SDS011;2351;50.812;12.872;2024-03-02T01:57:47;55.60;;;28.30;;
4674;SDS011;2351;50.812;12.872;2024-03-02T02:00:21;57.37;;;26.87;;
4674;SDS011;2351;50.812;12.872;2024-03-02T02:02:54;59.80;;;28.70;;
4674;SDS011;2351;50.812;12.872;2024-03-02T02:05:27;55.87;;;26.93;;
4674;SDS011;2351;50.812;12.872;2024-03-02T02:07:59;48.70;;;25.07;;
4674;SDS011;2351;50.812;12.872;2024-03-02T02:10:33;51.70;;;26.87;;
4674;SDS011;2351;50.812;12.872;2024-03-02T02:13:05;50.93;;;26.57;;
4674;SDS011;2351;50.812;12.872;2024-03-02T02:15:38;60.80;;;30.10;;
4674;SDS011;2351;50.812;12.872;2024-03-02T02:18:10;57.33;;;27.80;;
4674;SDS011;2351;50.812;12.872;2024-03-02T02:20:42;53.90;;;27.07;;
4674;SDS011;2351;50.812;12.872;2024-03-02T02:23:15;49.53;;;24.53;;
4674;SDS011;2351;50.812;12.872;2024-03-02T02:25:46;55.70;;;27.60;;
4674;SDS011;2351;50.812;12.872;2024-03-02T02:28:18;60.27;;;29.33;;
4674;SDS011;2351;50.812;12.872;2024-03-02T02:30:50;52.07;;;26.90;;
4674;SDS011;2351;50.812;12.872;2024-03-02T02:33:21;66.87;;;32.00;;
4674;SDS011;2351;50.812;12.872;2024-03-02T02:35:53;67.23;;;30.20;;
4674;SDS011;2351;50.812;12.872;2024-03-02T02:38:26;80.03;;;36.40;;
4674;SDS011;2351;50.812;12.872;2024-03-02T02:40:58;73.93;;;33.03;;
4674;SDS011;2351;50.812;12.872;2024-03-02T02:43:29;75.73;;;36.60;;
4674;SDS011;2351;50.812;12.872;2024-03-02T02:46:01;70.87;;;34.40;;
4674;SDS011;2351;50.812;12.872;2024-03-02T02:48:33;77.23;;;34.73;;
4674;SDS011;2351;50.812;12.872;2024-03-02T02:51:05;65.77;;;34.47;;
4674;SDS011;2351;50.812;12.872;2024-03-02T02:53:38;61.30;;;28.07;;
4674;SDS011;2351;50.812;12.872;2024-03-02T02:56:10;65.27;;;34.40;;
4674;SDS011;2351;50.812;12.872;2024-03-02T02:58:42;81.40;;;35.50;;
4674;SDS011;2351;50.812;12.872;2024-03-02T03:01:14;68.60;;;35.50;;
4674;SDS011;2351;50.812;12.872;2024-03-02T03:03:47;80.27;;;36.50;;
4674;SDS011;2351;50.812;12.872;2024-03-02T03:06:18;88.33;;;36.83;;
4674;SDS011;2351;50.812;12.872;2024-03-02T03:08:51;74.53;;;35.57;;
4674;SDS011;2351;50.812;12.872;2024-03-02T03:11:23;82.97;;;35.10;;
4674;SDS011;2351;50.812;12.872;2024-03-02T03:13:56;63.43;;;30.83;;
4674;SDS011;2351;50.812;12.872;2024-03-02T03:16:28;68.37;;;31.67;;
4674;SDS011;2351;50.812;12.872;2024-03-02T03:18:59;59.13;;;31.40;;
4674;SDS011;2351;50.812;12.872;2024-03-02T03:21:31;75.60;;;33.07;;
4674;SDS011;2351;50.812;12.872;2024-03-02T03:24:04;72.77;;;34.40;;
4674;SDS011;2351;50.812;12.872;2024-03-02T03:26:36;62.83;;;31.00;;
4674;SDS011;2351;50.812;12.872;2024-03-02T03:29:08;60.90;;;30.10;;
4674;SDS011;2351;50.812;12.872;2024-03-02T03:31:39;66.70;;;32.07;;
4674;SDS011;2351;50.812;12.872;2024-03-02T03:34:11;68.90;;;34.60;;
4674;SDS011;2351;50.812;12.872;2024-03-02T03:36:45;83.93;;;34.60;;
4674;SDS011;2351;50.812;12.872;2024-03-02T03:39:18;62.23;;;30.30;;
4674;SDS011;2351;50.812;12.872;2024-03-02T03:41:50;64.43;;;29.90;;
4674;SDS011;2351;50.812;12.872;2024-03-02T03:44:22;52.43;;;26.30;;
4674;SDS011;2351;50.812;12.872;2024-03-02T03:46:54;66.27;;;31.70;;
4674;SDS011;2351;50.812;12.872;2024-03-02T03:49:25;79.43;;;33.23;;
4674;SDS011;2351;50.812;12.872;2024-03-02T03:51:57;61.33;;;31.40;;
4674;SDS011;2351;50.812;12.872;2024-03-02T03:54:30;64.40;;;31.10;;
4674;SDS011;2351;50.812;12.872;2024-03-02T03:57:02;67.77;;;29.33;;
4674;SDS011;2351;50.812;12.872;2024-03-02T03:59:34;58.90;;;28.77;;
4674;SDS011;2351;50.812;12.872;2024-03-02T04:02:07;71.90;;;32.27;;
4674;SDS011;2351;50.812;12.872;2024-03-02T04:04:39;66.40;;;31.57;;
4674;SDS011;2351;50.812;12.872;2024-03-02T04:07:10;64.30;;;30.00;;
4674;SDS011;2351;50.812;12.872;2024-03-02T04:09:43;66.63;;;30.90;;
4674;SDS011;2351;50.812;12.872;2024-03-02T04:12:15;74.20;;;31.87;;
4674;SDS011;2351;50.812;12.872;2024-03-02T04:14:47;75.93;;;32.47;;
4674;SDS011;2351;50.812;12.872;2024-03-02T04:17:18;65.20;;;29.90;;
4674;SDS011;2351;50.812;12.872;2024-03-02T04:19:50;74.57;;;32.40;;
4674;SDS011;2351;50.812;12.872;2024-03-02T04:22:22;59.80;;;28.23;;
4674;SDS011;2351;50.812;12.872;2024-03-02T04:24:55;61.83;;;29.00;;
4674;SDS011;2351;50.812;12.872;2024-03-02T04:27:26;54.90;;;27.67;;
4674;SDS011;2351;50.812;12.872;2024-03-02T04:29:58;51.80;;;25.93;;
4674;SDS011;2351;50.812;12.872;2024-03-02T04:32:30;59.83;;;28.40;;
4674;SDS011;2351;50.812;12.872;2024-03-02T04:35:02;62.20;;;28.27;;
4674;SDS011;2351;50.812;12.872;2024-03-02T04:37:34;57.17;;;26.17;;
4674;SDS011;2351;50.812;12.872;2024-03-02T04:40:08;61.77;;;27.73;;
4674;SDS011;2351;50.812;12.872;2024-03-02T04:42:40;55.20;;;24.97;;
4674;SDS011;2351;50.812;12.872;2024-03-02T04:45:12;50.57;;;26.50;;
4674;SDS011;2351;50.812;12.872;2024-03-02T04:47:43;56.67;;;24.73;;
4674;SDS011;2351;50.812;12.872;2024-03-02T04:50:15;53.43;;;26.43;;
4674;SDS011;2351;50.812;12.872;2024-03-02T04:52:47;58.63;;;26.80;;
4674;SDS011;2351;50.812;12.872;2024-03-02T04:55:20;58.93;;;26.90;;
4674;SDS011;2351;50.812;12.872;2024-03-02T04:58:15;52.93;;;25.07;;
4674;SDS011;2351;50.812;12.872;2024-03-02T05:00:46;46.93;;;23.10;;
4674;SDS011;2351;50.812;12.872;2024-03-02T05:03:17;48.57;;;25.43;;
4674;SDS011;2351;50.812;12.872;2024-03-02T05:05:49;48.03;;;24.23;;
4674;SDS011;2351;50.812;12.872;2024-03-02T05:08:21;55.40;;;24.80;;
4674;SDS011;2351;50.812;12.872;2024-03-02T05:10:54;45.47;;;24.50;;
4674;SDS011;2351;50.812;12.872;2024-03-02T05:13:45;44.77;;;25.13;;
4674;SDS011;2351;50.812;12.872;2024-03-02T05:16:16;55.23;;;26.37;;
4674;SDS011;2351;50.812;12.872;2024-03-02T05:18:48;48.13;;;23.30;;
4674;SDS011;2351;50.812;12.872;2024-03-02T05:21:19;44.20;;;22.20;;
4674;SDS011;2351;50.812;12.872;2024-03-02T05:23:51;50.13;;;24.03;;
4674;SDS011;2351;50.812;12.872;2024-03-02T05:26:24;45.67;;;24.73;;
4674;SDS011;2351;50.812;12.872;2024-03-02T05:28:57;47.20;;;22.90;;
4674;SDS011;2351;50.812;12.872;2024-03-02T05:31:28;45.13;;;23.50;;
4674;SDS011;2351;50.812;12.872;2024-03-02T05:34:00;45.60;;;21.80;;
4674;SDS011;2351;50.812;12.872;2024-03-02T05:36:32;47.10;;;22.40;;
4674;SDS011;2351;50.812;12.872;2024-03-02T05:39:05;51.73;;;22.20;;
4674;SDS011;2351;50.812;12.872;2024-03-02T05:41:40;44.27;;;22.40;;
4674;SDS011;2351;50.812;12.872;2024-03-02T05:44:12;47.87;;;22.63;;
4674;SDS011;2351;50.812;12.872;2024-03-02T05:46:45;39.27;;;22.23;;
4674;SDS011;2351;50.812;12.872;2024-03-02T05:49:17;40.43;;;22.00;;
4674;SDS011;2351;50.812;12.872;2024-03-02T05:51:49;41.53;;;23.13;;
4674;SDS011;2351;50.812;12.872;2024-03-02T05:54:21;40.40;;;22.03;;
4674;SDS011;2351;50.812;12.872;2024-03-02T05:56:54;48.63;;;24.00;;
4674;SDS011;2351;50.812;12.872;2024-03-02T05:59:26;41.77;;;22.70;;
4674;SDS011;2351;50.812;12.872;2024-03-02T06:01:57;43.53;;;21.53;;
4674;SDS011;2351;50.812;12.872;2024-03-02T06:04:29;39.37;;;21.87;;
4674;SDS011;2351;50.812;12.872;2024-03-02T06:07:01;38.47;;;21.30;;
4674;SDS011;2351;50.812;12.872;2024-03-02T06:09:33;35.60;;;17.70;;
4674;SDS011;2351;50.812;12.872;2024-03-02T06:12:06;37.40;;;20.87;;
4674;SDS011;2351;50.812;12.872;2024-03-02T06:14:38;42.67;;;22.30;;
4674;SDS011;2351;50.812;12.872;2024-03-02T06:17:10;40.03;;;22.10;;
4674;SDS011;2351;50.812;12.872;2024-03-02T06:19:42;37.10;;;21.07;;
4674;SDS011;2351;50.812;12.872;2024-03-02T06:22:13;38.27;;;22.07;;
4674;SDS011;2351;50.812;12.872;2024-03-02T06:24:45;44.37;;;23.30;;
4674;SDS011;2351;50.812;12.872;2024-03-02T06:27:18;36.77;;;20.00;;
4674;SDS011;2351;50.812;12.872;2024-03-02T06:29:50;36.63;;;20.47;;
4674;SDS011;2351;50.812;12.872;2024-03-02T06:32:21;36.73;;;19.37;;
4674;SDS011;2351;50.812;12.872;2024-03-02T06:34:55;34.30;;;19.37;;
4674;SDS011;2351;50.812;12.872;2024-03-02T06:37:26;35.00;;;17.63;;
4674;SDS011;2351;50.812;12.872;2024-03-02T06:39:58;37.73;;;20.53;;
4674;SDS011;2351;50.812;12.872;2024-03-02T06:42:31;38.83;;;22.80;;
4674;SDS011;2351;50.812;12.872;2024-03-02T06:45:03;33.23;;;19.27;;
4674;SDS011;2351;50.812;12.872;2024-03-02T06:47:35;38.97;;;21.30;;
4674;SDS011;2351;50.812;12.872;2024-03-02T06:50:08;38.17;;;17.93;;
4674;SDS011;2351;50.812;12.872;2024-03-02T06:52:40;37.27;;;20.70;;
4674;SDS011;2351;50.812;12.872;2024-03-02T06:55:12;37.33;;;19.60;;
4674;SDS011;2351;50.812;12.872;2024-03-02T06:57:45;40.63;;;22.07;;
4674;SDS011;2351;50.812;12.872;2024-03-02T07:00:17;39.60;;;21.57;;
4674;SDS011;2351;50.812;12.872;2024-03-02T07:02:50;42.63;;;21.30;;
4674;SDS011;2351;50.812;12.872;2024-03-02T07:05:22;37.53;;;19.50;;
4674;SDS011;2351;50.812;12.872;2024-03-02T07:07:53;39.17;;;22.13;;
4674;SDS011;2351;50.812;12.872;2024-03-02T07:10:25;35.63;;;20.37;;
4674;SDS011;2351;50.812;12.872;2024-03-02T07:12:58;39.60;;;20.40;;
4674;SDS011;2351;50.812;12.872;2024-03-02T07:15:30;45.07;;;21.67;;
4674;SDS011;2351;50.812;12.872;2024-03-02T07:18:17;45.50;;;20.67;;
4674;SDS011;2351;50.812;12.872;2024-03-02T07:20:48;36.13;;;20.80;;
4674;SDS011;2351;50.812;12.872;2024-03-02T07:23:20;36.10;;;19.47;;
4674;SDS011;2351;50.812;12.872;2024-03-02T07:25:54;39.43;;;19.30;;
4674;SDS011;2351;50.812;12.872;2024-03-02T07:28:28;35.30;;;20.10;;
4674;SDS011;2351;50.812;12.872;2024-03-02T07:30:59;36.47;;;19.03;;
4674;SDS011;2351;50.812;12.872;2024-03-02T07:33:31;36.37;;;20.27;;
4674;SDS011;2351;50.812;12.872;2024-03-02T07:36:04;31.67;;;18.37;;
4674;SDS011;2351;50.812;12.872;2024-03-02T07:38:36;35.40;;;17.70;;
4674;SDS011;2351;50.812;12.872;2024-03-02T07:41:08;36.40;;;18.40;;
4674;SDS011;2351;50.812;12.872;2024-03-02T07:43:42;32.80;;;18.40;;
4674;SDS011;2351;50.812;12.872;2024-03-02T07:46:15;30.63;;;18.83;;
4674;SDS011;2351;50.812;12.872;2024-03-02T07:48:47;28.60;;;16.90;;
4674;SDS011;2351;50.812;12.872;2024-03-02T07:51:21;30.50;;;17.07;;
4674;SDS011;2351;50.812;12.872;2024-03-02T07:53:53;32.27;;;17.77;;
4674;SDS011;2351;50.812;12.872;2024-03-02T07:56:25;27.33;;;15.70;;
4674;SDS011;2351;50.812;12.872;2024-03-02T07:58:58;30.17;;;18.10;;
4674;SDS011;2351;50.812;12.872;2024-03-02T08:01:31;27.63;;;17.17;;
4674;SDS011;2351;50.812;12.872;2024-03-02T08:04:03;31.00;;;17.10;;
4674;SDS011;2351;50.812;12.872;2024-03-02T08:06:35;31.33;;;17.60;;
4674;SDS011;2351;50.812;12.872;2024-03-02T08:09:07;30.03;;;16.70;;
4674;SDS011;2351;50.812;12.872;2024-03-02T08:11:40;34.77;;;15.57;;
4674;SDS011;2351;50.812;12.872;2024-03-02T08:14:13;33.17;;;17.40;;
4674;SDS011;2351;50.812;12.872;2024-03-02T08:16:45;29.97;;;16.27;;
4674;SDS011;2351;50.812;12.872;2024-03-02T08:19:17;28.20;;;15.07;;
4674;SDS011;2351;50.812;12.872;2024-03-02T08:21:48;32.67;;;16.87;;
4674;SDS011;2351;50.812;12.872;2024-03-02T08:24:20;34.43;;;17.60;;
4674;SDS011;2351;50.812;12.872;2024-03-02T08:26:52;34.40;;;16.43;;
4674;SDS011;2351;50.812;12.872;2024-03-02T08:29:25;38.63;;;18.13;;
4674;SDS011;2351;50.812;12.872;2024-03-02T08:31:57;28.17;;;16.17;;
4674;SDS011;2351;50.812;12.872;2024-03-02T08:34:28;28.97;;;16.27;;
4674;SDS011;2351;50.812;12.872;2024-03-02T08:37:00;27.83;;;16.30;;
4674;SDS011;2351;50.812;12.872;2024-03-02T08:39:32;29.73;;;17.50;;
4674;SDS011;2351;50.812;12.872;2024-03-02T08:42:04;35.77;;;18.07;;
4674;SDS011;2351;50.812;12.872;2024-03-02T08:44:37;35.27;;;16.77;;
4674;SDS011;2351;50.812;12.872;2024-03-02T08:47:09;28.83;;;16.50;;
4674;SDS011;2351;50.812;12.872;2024-03-02T08:49:41;29.30;;;16.17;;
4674;SDS011;2351;50.812;12.872;2024-03-02T08:52:12;31.30;;;16.00;;
4674;SDS011;2351;50.812;12.872;2024-03-02T08:54:44;29.57;;;17.40;;
4674;SDS011;2351;50.812;12.872;2024-03-02T08:57:16;32.77;;;15.13;;
4674;SDS011;2351;50.812;12.872;2024-03-02T08:59:49;30.33;;;16.40;;
4674;SDS011;2351;50.812;12.872;2024-03-02T09:02:21;29.97;;;16.70;;
4674;SDS011;2351;50.812;12.872;2024-03-02T09:04:53;30.70;;;16.17;;
4674;SDS011;2351;50.812;12.872;2024-03-02T09:07:25;29.53;;;15.20;;
4674;SDS011;2351;50.812;12.872;2024-03-02T09:09:56;27.43;;;16.90;;
4674;SDS011;2351;50.812;12.872;2024-03-02T09:12:28;22.60;;;15.00;;
4674;SDS011;2351;50.812;12.872;2024-03-02T09:15:01;25.87;;;15.20;;
4674;SDS011;2351;50.812;12.872;2024-03-02T09:17:33;25.40;;;15.23;;
4674;SDS011;2351;50.812;12.872;2024-03-02T09:20:05;28.27;;;17.17;;
4674;SDS011;2351;50.812;12.872;2024-03-02T09:22:38;30.03;;;17.20;;
4674;SDS011;2351;50.812;12.872;2024-03-02T09:25:09;28.80;;;17.20;;
4674;SDS011;2351;50.812;12.872;2024-03-02T09:27:41;28.83;;;15.67;;
4674;SDS011;2351;50.812;12.872;2024-03-02T09:30:14;28.07;;;15.03;;
4674;SDS011;2351;50.812;12.872;2024-03-02T09:32:46;31.00;;;15.40;;
4674;SDS011;2351;50.812;12.872;2024-03-02T09:35:18;22.33;;;13.80;;
4674;SDS011;2351;50.812;12.872;2024-03-02T09:37:50;28.20;;;17.00;;
4674;SDS011;2351;50.812;12.872;2024-03-02T09:40:21;29.80;;;15.40;;
4674;SDS011;2351;50.812;12.872;2024-03-02T09:42:54;31.13;;;16.20;;
4674;SDS011;2351;50.812;12.872;2024-03-02T09:45:27;29.10;;;15.47;;
4674;SDS011;2351;50.812;12.872;2024-03-02T09:48:00;23.10;;;13.30;;
4674;SDS011;2351;50.812;12.872;2024-03-02T09:50:32;24.80;;;15.03;;
4674;SDS011;2351;50.812;12.872;2024-03-02T09:53:03;25.63;;;13.20;;
4674;SDS011;2351;50.812;12.872;2024-03-02T09:55:36;23.43;;;13.47;;
4674;SDS011;2351;50.812;12.872;2024-03-02T09:58:09;26.60;;;13.17;;
4674;SDS011;2351;50.812;12.872;2024-03-02T10:00:42;21.27;;;12.67;;
4674;SDS011;2351;50.812;12.872;2024-03-02T10:03:13;22.53;;;14.07;;
4674;SDS011;2351;50.812;12.872;2024-03-02T10:05:45;21.77;;;13.03;;
4674;SDS011;2351;50.812;12.872;2024-03-02T10:08:17;21.03;;;11.80;;
4674;SDS011;2351;50.812;12.872;2024-03-02T10:10:48;20.00;;;12.17;;
4674;SDS011;2351;50.812;12.872;2024-03-02T10:13:20;21.70;;;10.77;;
4674;SDS011;2351;50.812;12.872;2024-03-02T10:15:58;17.63;;;11.20;;
4674;SDS011;2351;50.812;12.872;2024-03-02T10:18:43;19.37;;;11.43;;
4674;SDS011;2351;50.812;12.872;2024-03-02T10:21:15;18.30;;;11.33;;
4674;SDS011;2351;50.812;12.872;2024-03-02T10:23:46;22.17;;;12.03;;
4674;SDS011;2351;50.812;12.872;2024-03-02T10:26:18;20.30;;;10.67;;
4674;SDS011;2351;50.812;12.872;2024-03-02T10:28:51;17.47;;;11.03;;
4674;SDS011;2351;50.812;12.872;2024-03-02T10:31:30;17.00;;;11.50;;
4674;SDS011;2351;50.812;12.872;2024-03-02T10:34:02;20.47;;;10.90;;
4674;SDS011;2351;50.812;12.872;2024-03-02T10:36:34;15.60;;;10.37;;
4674;SDS011;2351;50.812;12.872;2024-03-02T10:39:07;20.03;;;9.70;;
4674;SDS011;2351;50.812;12.872;2024-03-02T10:41:40;15.40;;;9.40;;
4674;SDS011;2351;50.812;12.872;2024-03-02T10:44:11;14.53;;;9.20;;
4674;SDS011;2351;50.812;12.872;2024-03-02T10:46:45;13.97;;;9.10;;
4674;SDS011;2351;50.812;12.872;2024-03-02T10:49:18;16.60;;;9.43;;
4674;SDS011;2351;50.812;12.872;2024-03-02T10:51:52;15.00;;;8.70;;
4674;SDS011;2351;50.812;12.872;2024-03-02T10:54:24;12.43;;;8.60;;
4674;SDS011;2351;50.812;12.872;2024-03-02T10:56:59;14.20;;;9.30;;
4674;SDS011;2351;50.812;12.872;2024-03-02T10:59:32;15.47;;;8.40;;
4674;SDS011;2351;50.812;12.872;2024-03-02T11:02:06;11.77;;;7.90;;
4674;SDS011;2351;50.812;12.872;2024-03-02T11:04:42;13.03;;;8.00;;
4674;SDS011;2351;50.812;12.872;2024-03-02T11:07:16;12.90;;;8.80;;
4674;SDS011;2351;50.812;12.872;2024-03-02T11:09:53;12.90;;;7.50;;
4674;SDS011;2351;50.812;12.872;2024-03-02T11:12:29;11.40;;;7.77;;
4674;SDS011;2351;50.812;12.872;2024-03-02T11:15:03;13.90;;;7.57;;
4674;SDS011;2351;50.812;12.872;2024-03-02T11:17:41;9.37;;;7.53;;
4674;SDS011;2351;50.812;12.872;2024-03-02T11:20:14;9.10;;;6.63;;
4674;SDS011;2351;50.812;12.872;2024-03-02T11:22:49;20.00;;;7.90;;
4674;SDS011;2351;50.812;12.872;2024-03-02T11:25:24;12.47;;;7.37;;
4674;SDS011;2351;50.812;12.872;2024-03-02T11:28:00;10.20;;;6.60;;
4674;SDS011;2351;50.812;12.872;2024-03-02T11:30:50;10.50;;;8.20;;
4674;SDS011;2351;50.812;12.872;2024-03-02T11:33:27;12.63;;;7.37;;
4674;SDS011;2351;50.812;12.872;2024-03-02T11:36:00;13.30;;;7.90;;
4674;SDS011;2351;50.812;12.872;2024-03-02T11:38:32;15.13;;;8.60;;
4674;SDS011;2351;50.812;12.872;2024-03-02T11:41:05;9.47;;;7.60;;
4674;SDS011;2351;50.812;12.872;2024-03-02T11:43:39;11.53;;;7.17;;
4674;SDS011;2351;50.812;12.872;2024-03-02T11:46:11;9.73;;;6.53;;
4674;SDS011;2351;50.812;12.872;2024-03-02T11:48:44;11.60;;;7.03;;
4674;SDS011;2351;50.812;12.872;2024-03-02T11:51:17;7.93;;;5.77;;
4674;SDS011;2351;50.812;12.872;2024-03-02T11:53:49;13.93;;;6.90;;
4674;SDS011;2351;50.812;12.872;2024-03-02T11:56:22;13.23;;;8.17;;
4674;SDS011;2351;50.812;12.872;2024-03-02T11:58:55;14.63;;;9.33;;
4674;SDS011;2351;50.812;12.872;2024-03-02T12:01:27;21.50;;;8.70;;
4674;SDS011;2351;50.812;12.872;2024-03-02T12:04:02;9.03;;;6.60;;
4674;SDS011;2351;50.812;12.872;2024-03-02T12:06:34;13.13;;;7.27;;
4674;SDS011;2351;50.812;12.872;2024-03-02T12:09:06;12.73;;;4.40;;
4674;SDS011;2351;50.812;12.872;2024-03-02T12:11:42;10.27;;;5.47;;
4674;SDS011;2351;50.812;12.872;2024-03-02T12:14:14;11.97;;;5.50;;
4674;SDS011;2351;50.812;12.872;2024-03-02T12:16:45;12.87;;;5.53;;
4674;SDS011;2351;50.812;12.872;2024-03-02T12:19:19;13.23;;;5.37;;
4674;SDS011;2351;50.812;12.872;2024-03-02T12:21:50;19.87;;;5.80;;
4674;SDS011;2351;50.812;12.872;2024-03-02T12:24:22;12.57;;;5.67;;
4674;SDS011;2351;50.812;12.872;2024-03-02T12:26:55;17.73;;;6.83;;
4674;SDS011;2351;50.812;12.872;2024-03-02T12:29:28;18.70;;;6.33;;
4674;SDS011;2351;50.812;12.872;2024-03-02T12:32:00;18.53;;;6.33;;
4674;SDS011;2351;50.812;12.872;2024-03-02T12:34:34;16.00;;;5.67;;
4674;SDS011;2351;50.812;12.872;2024-03-02T12:37:06;18.03;;;5.70;;
4674;SDS011;2351;50.812;12.872;2024-03-02T12:39:37;16.23;;;6.47;;
4674;SDS011;2351;50.812;12.872;2024-03-02T12:42:09;17.70;;;6.40;;
4674;SDS011;2351;50.812;12.872;2024-03-02T12:44:41;15.23;;;5.80;;
4674;SDS011;2351;50.812;12.872;2024-03-02T12:47:12;10.00;;;5.10;;
4674;SDS011;2351;50.812;12.872;2024-03-02T12:49:46;10.20;;;5.77;;
4674;SDS011;2351;50.812;12.872;2024-03-02T12:52:17;13.23;;;5.73;;
4674;SDS011;2351;50.812;12.872;2024-03-02T12:54:49;13.27;;;5.77;;
4674;SDS011;2351;50.812;12.872;2024-03-02T12:57:24;11.50;;;6.10;;
4674;SDS011;2351;50.812;12.872;2024-03-02T12:59:58;12.00;;;5.40;;
4674;SDS011;2351;50.812;12.872;2024-03-02T13:02:30;15.00;;;5.90;;
4674;SDS011;2351;50.812;12.872;2024-03-02T13:05:04;9.30;;;4.23;;
4674;SDS011;2351;50.812;12.872;2024-03-02T13:07:41;12.20;;;5.03;;
4674;SDS011;2351;50.812;12.872;2024-03-02T13:10:14;12.07;;;4.93;;
4674;SDS011;2351;50.812;12.872;2024-03-02T13:12:45;14.63;;;7.30;;
4674;SDS011;2351;50.812;12.872;2024-03-02T13:15:17;14.60;;;5.80;;
4674;SDS011;2351;50.812;12.872;2024-03-02T13:17:49;14.80;;;5.37;;
4674;SDS011;2351;50.812;12.872;2024-03-02T13:20:22;11.53;;;5.27;;
4674;SDS011;2351;50.812;12.872;2024-03-02T13:22:54;15.57;;;6.60;;
4674;SDS011;2351;50.812;12.872;2024-03-02T13:25:26;17.80;;;5.03;;
4674;SDS011;2351;50.812;12.872;2024-03-02T13:27:57;10.03;;;4.73;;
4674;SDS011;2351;50.812;12.872;2024-03-02T13:30:29;8.50;;;4.30;;
4674;SDS011;2351;50.812;12.872;2024-03-02T13:33:01;9.80;;;4.73;;
4674;SDS011;2351;50.812;12.872;2024-03-02T13:35:34;11.40;;;5.20;;
4674;SDS011;2351;50.812;12.872;2024-03-02T13:38:06;9.87;;;5.70;;
4674;SDS011;2351;50.812;12.872;2024-03-02T13:40:37;13.73;;;5.10;;
4674;SDS011;2351;50.812;12.872;2024-03-02T13:43:10;12.43;;;6.33;;
4674;SDS011;2351;50.812;12.872;2024-03-02T13:45:42;10.60;;;5.77;;
4674;SDS011;2351;50.812;12.872;2024-03-02T13:48:14;9.03;;;5.77;;
4674;SDS011;2351;50.812;12.872;2024-03-02T13:50:47;12.43;;;7.00;;
4674;SDS011;2351;50.812;12.872;2024-03-02T13:53:19;16.73;;;7.00;;
4674;SDS011;2351;50.812;12.872;2024-03-02T13:55:51;15.40;;;7.23;;
4674;SDS011;2351;50.812;12.872;2024-03-02T13:58:23;13.63;;;6.90;;
4674;SDS011;2351;50.812;12.872;2024-03-02T14:00:55;11.50;;;6.50;;
4674;SDS011;2351;50.812;12.872;2024-03-02T14:03:27;11.67;;;6.30;;
4674;SDS011;2351;50.812;12.872;2024-03-02T14:06:00;11.00;;;6.60;;
4674;SDS011;2351;50.812;12.872;2024-03-02T14:08:33;12.63;;;7.17;;
4674;SDS011;2351;50.812;12.872;2024-03-02T14:11:06;12.20;;;6.77;;
4674;SDS011;2351;50.812;12.872;2024-03-02T14:13:37;12.87;;;6.90;;
4674;SDS011;2351;50.812;12.872;2024-03-02T14:16:09;13.70;;;6.80;;
4674;SDS011;2351;50.812;12.872;2024-03-02T14:18:41;9.47;;;6.07;;
4674;SDS011;2351;50.812;12.872;2024-03-02T14:21:14;11.10;;;7.37;;
4674;SDS011;2351;50.812;12.872;2024-03-02T14:23:46;13.63;;;7.57;;
4674;SDS011;2351;50.812;12.872;2024-03-02T14:26:18;11.03;;;7.27;;
4674;SDS011;2351;50.812;12.872;2024-03-02T14:28:49;14.07;;;7.67;;
4674;SDS011;2351;50.812;12.872;2024-03-02T14:31:22;11.63;;;6.73;;
4674;SDS011;2351;50.812;12.872;2024-03-02T14:33:53;8.37;;;5.43;;
4674;SDS011;2351;50.812;12.872;2024-03-02T14:36:27;8.80;;;6.47;;
4674;SDS011;2351;50.812;12.872;2024-03-02T14:38:58;15.17;;;6.77;;
4674;SDS011;2351;50.812;12.872;2024-03-02T14:41:30;11.90;;;6.77;;
4674;SDS011;2351;50.812;12.872;2024-03-02T14:44:02;10.13;;;6.70;;
4674;SDS011;2351;50.812;12.872;2024-03-02T14:46:34;11.83;;;7.40;;
4674;SDS011;2351;50.812;12.872;2024-03-02T14:49:06;14.00;;;7.67;;
4674;SDS011;2351;50.812;12.872;2024-03-02T14:51:39;14.53;;;8.70;;
4674;SDS011;2351;50.812;12.872;2024-03-02T14:54:10;17.67;;;8.17;;
4674;SDS011;2351;50.812;12.872;2024-03-02T14:56:42;13.27;;;7.97;;
4674;SDS011;2351;50.812;12.872;2024-03-02T14:59:14;17.93;;;7.90;;
4674;SDS011;2351;50.812;12.872;2024-03-02T15:01:46;14.13;;;8.60;;
4674;SDS011;2351;50.812;12.872;2024-03-02T15:04:18;15.20;;;8.43;;
4674;SDS011;2351;50.812;12.872;2024-03-02T15:06:52;16.07;;;8.73;;
4674;SDS011;2351;50.812;12.872;2024-03-02T15:09:23;20.60;;;9.87;;